Terminal Aerodrome Forecast
Issued by NWS

Home | Current Version | Previous Version | Graphics & Text | Print | Product List | Glossary On
Versions: 1 2 3 4 5 6 7 8 9 10 11 12 13 14 15 16 17 18 19 20 21
000
FTUS43 KABR 262300
TAFATY
TAF
KATY 262338Z 2700/2724 32008KT P6SM SCT250
     FM270400 VRB03KT 5SM BR SKC
     FM270600 VRB03KT 1SM BR SKC
     FM270800 18005KT 1/2SM FZFG OVC002
     FM271600 17010KT P6SM SKC=

USA.gov is the U.S. government's official web portal to all federal, state and local government web resources and services.